createdAt,value
2023-04-12T00:02:20.243Z,14.40
2023-04-12T00:04:47.029Z,14.40
2023-04-12T00:07:13.644Z,14.50
2023-04-12T00:09:40.116Z,14.40
2023-04-12T00:12:06.595Z,14.40
2023-04-12T00:14:33.073Z,14.40
2023-04-12T00:16:59.537Z,14.40
2023-04-12T00:19:26.033Z,14.40
2023-04-12T00:21:52.494Z,14.40
2023-04-12T00:24:18.955Z,14.40
2023-04-12T00:26:45.421Z,14.40
2023-04-12T00:29:11.893Z,14.40
2023-04-12T00:31:38.406Z,14.50
2023-04-12T00:34:04.877Z,14.40
2023-04-12T00:36:31.382Z,14.40
2023-04-12T00:38:57.844Z,14.40
2023-04-12T00:41:24.349Z,14.40
2023-04-12T00:43:50.845Z,14.50
2023-04-12T00:46:17.421Z,14.50
2023-04-12T00:48:43.928Z,14.40
2023-04-12T00:51:10.403Z,14.30
2023-04-12T00:53:36.882Z,14.30
2023-04-12T00:56:03.360Z,14.30
2023-04-12T00:58:31.707Z,14.30
2023-04-12T01:00:58.215Z,14.30
2023-04-12T01:03:24.870Z,14.30
2023-04-12T01:05:51.524Z,14.30
2023-04-12T01:08:17.981Z,14.30
2023-04-12T01:10:44.461Z,14.30
2023-04-12T01:13:10.932Z,14.30
2023-04-12T01:15:37.408Z,14.20
2023-04-12T01:18:03.885Z,14.20
2023-04-12T01:20:30.383Z,14.30
2023-04-12T01:22:56.856Z,14.40
2023-04-12T01:25:23.381Z,14.40
2023-04-12T01:27:49.925Z,14.40
2023-04-12T01:30:16.435Z,14.40
2023-04-12T01:32:42.931Z,14.40
2023-04-12T01:35:09.459Z,14.40
2023-04-12T01:37:35.939Z,14.30
2023-04-12T01:40:02.436Z,14.30
2023-04-12T01:42:28.897Z,14.30
2023-04-12T01:44:55.377Z,14.40
2023-04-12T01:47:21.856Z,14.50
2023-04-12T01:49:48.340Z,14.30
2023-04-12T01:52:14.824Z,14.40
2023-04-12T01:54:41.309Z,14.40
2023-04-12T01:57:07.781Z,14.40
2023-04-12T01:59:34.256Z,14.40
2023-04-12T02:02:00.838Z,14.40
2023-04-12T02:04:27.403Z,14.40
2023-04-12T02:06:53.886Z,14.40
2023-04-12T02:09:20.386Z,14.40
2023-04-12T02:11:46.893Z,14.40
2023-04-12T02:14:13.370Z,14.40
2023-04-12T02:16:39.855Z,14.40
2023-04-12T02:19:06.356Z,14.40
2023-04-12T02:21:32.822Z,14.50
2023-04-12T02:23:59.289Z,14.50
2023-04-12T02:26:25.774Z,14.40
2023-04-12T02:28:52.264Z,14.50
2023-04-12T02:31:18.856Z,14.40
2023-04-12T02:33:45.356Z,14.40
2023-04-12T02:36:11.842Z,14.40
2023-04-12T02:38:38.334Z,14.40
2023-04-12T02:41:04.840Z,14.40
2023-04-12T02:43:32.412Z,14.40
2023-04-12T02:45:58.887Z,14.50
2023-04-12T02:48:25.403Z,14.40
2023-04-12T02:50:51.842Z,14.50
2023-04-12T02:53:18.339Z,14.40
2023-04-12T02:55:44.832Z,14.40
2023-04-12T02:58:11.316Z,14.40
2023-04-12T03:00:37.798Z,14.40
2023-04-12T03:03:04.483Z,14.40
2023-04-12T03:05:31.121Z,14.40
2023-04-12T03:07:57.603Z,14.40
2023-04-12T03:10:24.073Z,14.50
2023-04-12T03:12:50.592Z,14.50
2023-04-12T03:15:17.059Z,14.40
2023-04-12T03:17:43.566Z,14.50
2023-04-12T03:20:10.290Z,14.50
2023-04-12T03:22:36.908Z,14.50
2023-04-12T03:25:03.390Z,14.40
2023-04-12T03:27:29.890Z,14.40
2023-04-12T03:29:56.362Z,14.40
2023-04-12T03:32:22.908Z,14.40
2023-04-12T03:34:49.384Z,14.40
2023-04-12T03:37:15.938Z,14.40
2023-04-12T03:39:42.477Z,14.50
2023-04-12T03:42:13.573Z,14.40
2023-04-12T03:44:48.294Z,14.50
2023-04-12T03:47:14.757Z,14.40
2023-04-12T03:49:43.851Z,14.40
2023-04-12T03:52:10.341Z,14.40
2023-04-12T03:54:36.814Z,14.40
2023-04-12T03:57:03.393Z,14.40
2023-04-12T03:59:29.888Z,14.50
2023-04-12T04:01:56.406Z,14.40
2023-04-12T04:04:23.294Z,14.40
2023-04-12T04:06:49.911Z,14.40
2023-04-12T04:09:16.395Z,14.40
2023-04-12T04:11:42.850Z,14.50
2023-04-12T04:14:09.306Z,14.40
2023-04-12T04:16:35.850Z,14.50
2023-04-12T04:19:02.386Z,14.40
2023-04-12T04:21:28.863Z,14.40
2023-04-12T04:23:55.502Z,14.40
2023-04-12T04:26:22.239Z,14.50
2023-04-12T04:28:48.713Z,14.40
2023-04-12T04:31:15.214Z,14.50
2023-04-12T04:33:41.784Z,14.40
2023-04-12T04:36:08.279Z,14.50
2023-04-12T04:38:34.791Z,14.40
2023-04-12T04:41:01.278Z,14.40
2023-04-12T04:43:27.747Z,14.50
2023-04-12T04:45:54.268Z,14.40
2023-04-12T04:48:20.790Z,14.40
2023-04-12T04:50:47.246Z,14.40
2023-04-12T04:53:13.716Z,14.50
2023-04-12T04:55:40.192Z,14.40
2023-04-12T04:58:06.659Z,14.40
2023-04-12T05:00:33.139Z,14.40
2023-04-12T05:02:59.740Z,14.50
2023-04-12T05:05:26.275Z,14.50
2023-04-12T05:07:52.754Z,14.40
2023-04-12T05:10:19.234Z,14.40
2023-04-12T05:12:45.747Z,14.40
2023-04-12T05:15:12.436Z,14.40
2023-04-12T05:17:39.053Z,14.40
2023-04-12T05:20:05.562Z,14.40
2023-04-12T05:22:32.029Z,14.40
2023-04-12T05:24:58.496Z,14.40
2023-04-12T05:27:24.956Z,14.40
2023-04-12T05:29:51.453Z,14.50
2023-04-12T05:32:17.927Z,14.40
2023-04-12T05:34:44.412Z,14.40
2023-04-12T05:37:10.891Z,14.40
2023-04-12T05:39:37.371Z,14.40
2023-04-12T05:42:03.870Z,14.50
2023-04-12T05:44:30.363Z,14.50
2023-04-12T05:46:56.838Z,14.50
2023-04-12T05:49:23.321Z,14.40
2023-04-12T05:51:49.813Z,14.40
2023-04-12T05:54:16.286Z,14.50
2023-04-12T05:56:42.770Z,14.50
2023-04-12T05:59:09.246Z,14.50
2023-04-12T06:01:35.700Z,14.50
2023-04-12T06:04:02.368Z,14.40
2023-04-12T06:06:28.954Z,14.40
2023-04-12T06:08:55.677Z,14.40
2023-04-12T06:11:22.378Z,14.40
2023-04-12T06:13:48.867Z,14.50
2023-04-12T06:16:15.401Z,14.40
2023-04-12T06:18:41.901Z,14.50
2023-04-12T06:21:08.353Z,14.40
2023-04-12T06:23:34.829Z,14.40
2023-04-12T06:26:01.316Z,14.40
2023-04-12T06:28:27.750Z,14.40
2023-04-12T06:30:54.291Z,14.40
2023-04-12T06:33:20.777Z,14.40
2023-04-12T06:38:31.418Z,14.50
2023-04-12T06:40:57.898Z,14.40
2023-04-12T06:43:24.362Z,14.40
2023-04-12T06:45:50.814Z,14.40
2023-04-12T06:48:17.323Z,14.40
2023-04-12T06:50:43.794Z,14.40
2023-04-12T06:53:10.274Z,14.40
2023-04-12T06:55:36.785Z,14.50
2023-04-12T06:58:03.287Z,14.40
2023-04-12T07:00:29.793Z,14.40
2023-04-12T07:02:56.428Z,14.40
2023-04-12T07:05:26.059Z,14.40
2023-04-12T07:07:52.553Z,14.40
2023-04-12T07:10:19.023Z,14.40
2023-04-12T07:12:45.512Z,14.50
2023-04-12T07:15:11.991Z,14.50
2023-04-12T07:17:38.536Z,14.40
2023-04-12T07:20:05.044Z,14.40
2023-04-12T07:22:31.528Z,14.50
2023-04-12T07:24:58.005Z,14.50
2023-04-12T07:27:24.468Z,14.40
2023-04-12T07:29:50.947Z,14.50
2023-04-12T07:32:17.402Z,14.40
2023-04-12T07:34:43.911Z,14.50
2023-04-12T07:37:10.446Z,14.50
2023-04-12T07:39:36.968Z,14.50
2023-04-12T07:42:03.478Z,14.40
2023-04-12T07:44:29.962Z,14.50
2023-04-12T07:46:56.437Z,14.50
2023-04-12T07:49:22.906Z,14.50
2023-04-12T07:51:49.383Z,14.40
2023-04-12T07:54:15.867Z,14.40
2023-04-12T07:56:42.345Z,14.50
2023-04-12T07:59:08.841Z,14.40
2023-04-12T08:01:35.299Z,14.40
2023-04-12T08:04:02.357Z,14.50
2023-04-12T08:06:31.741Z,14.40
2023-04-12T08:08:59.501Z,14.50
2023-04-12T08:11:25.974Z,14.50
2023-04-12T08:13:52.456Z,14.50
2023-04-12T08:16:18.998Z,14.50
2023-04-12T08:18:45.534Z,14.50
2023-04-12T08:21:12.043Z,14.50
2023-04-12T08:23:38.519Z,14.50
2023-04-12T08:26:04.990Z,14.50
2023-04-12T08:28:31.495Z,14.50
2023-04-12T08:30:58.044Z,14.40
2023-04-12T08:33:24.544Z,14.40
2023-04-12T08:35:51.061Z,14.40
2023-04-12T08:38:17.558Z,14.40
2023-04-12T08:40:44.021Z,14.40
2023-04-12T08:43:13.558Z,14.40
2023-04-12T08:45:40.065Z,14.40
2023-04-12T08:48:06.649Z,14.50
2023-04-12T08:50:33.185Z,14.40
2023-04-12T08:52:59.670Z,14.50
2023-04-12T08:55:26.152Z,14.40
2023-04-12T08:57:52.620Z,14.50
2023-04-12T09:00:19.122Z,14.50
2023-04-12T09:02:45.690Z,14.50
2023-04-12T09:05:12.332Z,14.40
2023-04-12T09:07:38.799Z,14.40
2023-04-12T09:10:05.272Z,14.50
2023-04-12T09:12:31.761Z,14.50
2023-04-12T09:14:58.250Z,14.40
2023-04-12T09:17:24.760Z,14.50
2023-04-12T09:19:51.322Z,14.40
2023-04-12T09:22:17.811Z,14.40
2023-04-12T09:24:44.265Z,14.50
2023-04-12T09:27:10.739Z,14.50
2023-04-12T09:29:37.208Z,14.40
2023-04-12T09:32:03.754Z,14.50
2023-04-12T09:34:30.296Z,14.50
2023-04-12T09:36:56.835Z,14.50
2023-04-12T09:39:23.349Z,14.50
2023-04-12T09:41:49.817Z,14.60
2023-04-12T09:44:16.293Z,14.50
2023-04-12T09:46:42.808Z,14.50
2023-04-12T09:49:09.359Z,14.50
2023-04-12T09:51:35.852Z,14.50
2023-04-12T09:54:02.326Z,14.50
2023-04-12T09:56:28.832Z,14.60
2023-04-12T09:58:55.454Z,14.50
2023-04-12T10:01:22.093Z,14.50
2023-04-12T10:03:48.771Z,14.40
2023-04-12T10:06:15.343Z,14.40
2023-04-12T10:08:41.841Z,14.50
2023-04-12T10:11:08.304Z,14.50
2023-04-12T10:13:34.815Z,14.40
2023-04-12T10:16:01.405Z,14.60
2023-04-12T10:18:27.934Z,14.60
2023-04-12T10:20:56.227Z,14.50
2023-04-12T10:23:22.714Z,14.60
2023-04-12T10:25:49.176Z,14.60
2023-04-12T10:28:15.684Z,14.60
2023-04-12T10:30:42.227Z,14.40
2023-04-12T10:33:08.729Z,14.50
2023-04-12T10:35:35.300Z,14.50
2023-04-12T10:38:01.818Z,14.50
2023-04-12T10:40:28.360Z,14.50
2023-04-12T10:42:54.837Z,14.50
2023-04-12T10:45:21.360Z,14.60
2023-04-12T10:47:47.848Z,14.60
2023-04-12T10:50:14.315Z,14.60
2023-04-12T10:52:40.793Z,14.50
2023-04-12T10:55:07.290Z,14.50
2023-04-12T10:57:33.762Z,14.50
2023-04-12T11:00:00.290Z,14.50
2023-04-12T11:02:26.923Z,14.50
2023-04-12T11:04:56.473Z,14.50
2023-04-12T11:07:22.996Z,14.50
2023-04-12T11:09:49.472Z,14.40
2023-04-12T11:12:15.955Z,14.40
2023-04-12T11:14:42.484Z,14.40
2023-04-12T11:17:14.554Z,14.40
2023-04-12T11:19:41.173Z,14.50
2023-04-12T11:22:07.731Z,14.60
2023-04-12T11:24:34.240Z,14.60
2023-04-12T11:27:00.754Z,14.60
2023-04-12T11:29:27.243Z,14.60
2023-04-12T11:31:53.806Z,14.50
2023-04-12T11:34:20.318Z,14.60
2023-04-12T11:36:46.799Z,14.60
2023-04-12T11:39:13.297Z,14.50
2023-04-12T11:41:39.789Z,14.50
2023-04-12T11:44:06.268Z,14.50
2023-04-12T11:46:32.838Z,14.50
2023-04-12T11:48:59.319Z,14.50
2023-04-12T11:51:25.801Z,14.60
2023-04-12T11:53:52.284Z,14.50
2023-04-12T11:56:18.798Z,14.40
2023-04-12T11:58:45.288Z,14.40
2023-04-12T12:01:11.796Z,14.40
2023-04-12T12:03:38.377Z,14.40
2023-04-12T12:06:05.280Z,14.40
2023-04-12T12:08:31.950Z,14.40
2023-04-12T12:11:07.262Z,14.40
2023-04-12T12:13:34.603Z,14.30
2023-04-12T12:16:01.159Z,14.20
2023-04-12T12:18:27.686Z,14.20
2023-04-12T12:20:54.140Z,14.30
2023-04-12T12:23:20.601Z,14.50
2023-04-12T12:25:47.119Z,14.50
2023-04-12T12:28:13.677Z,14.50
2023-04-12T12:30:40.294Z,14.50
2023-04-12T12:33:06.975Z,14.40
2023-04-12T12:35:33.479Z,14.50
2023-04-12T12:37:59.953Z,14.50
2023-04-12T12:40:26.430Z,14.50
2023-04-12T12:42:52.994Z,14.50
2023-04-12T12:45:19.493Z,14.50
2023-04-12T12:47:46.098Z,14.50
2023-04-12T12:50:12.631Z,14.50
2023-04-12T12:52:39.105Z,14.50
2023-04-12T12:55:05.586Z,14.40
2023-04-12T12:57:32.053Z,14.50
2023-04-12T12:59:58.521Z,14.50
2023-04-12T13:02:25.102Z,14.40
2023-04-12T13:04:51.833Z,14.40
2023-04-12T13:07:18.441Z,14.40
2023-04-12T13:09:44.902Z,14.50
2023-04-12T13:12:11.375Z,14.50
2023-04-12T13:14:37.845Z,14.50
2023-04-12T13:17:04.312Z,14.50
2023-04-12T13:19:30.793Z,14.60
2023-04-12T13:21:57.245Z,14.50
2023-04-12T13:24:23.715Z,14.50
2023-04-12T13:26:50.234Z,14.50
2023-04-12T13:29:16.737Z,14.50
2023-04-12T13:31:43.272Z,14.60
2023-04-12T13:34:09.791Z,14.60
2023-04-12T13:36:36.257Z,14.50
2023-04-12T13:39:02.762Z,14.60
2023-04-12T13:41:29.241Z,14.50
2023-04-12T13:43:55.716Z,14.60
2023-04-12T13:46:22.300Z,14.70
2023-04-12T13:48:48.796Z,14.70
2023-04-12T13:51:15.290Z,14.70
2023-04-12T13:53:41.764Z,14.70
2023-04-12T13:56:08.355Z,14.70
2023-04-12T13:58:34.885Z,14.60
2023-04-12T14:01:01.441Z,14.60
2023-04-12T14:03:28.070Z,14.70
2023-04-12T14:05:54.570Z,14.70
2023-04-12T14:08:21.080Z,14.70
2023-04-12T14:10:47.604Z,14.80
2023-04-12T14:13:14.117Z,14.70
2023-04-12T14:15:40.586Z,14.70
2023-04-12T14:18:07.092Z,14.80
2023-04-12T14:20:38.480Z,14.80
2023-04-12T14:23:06.473Z,14.80
2023-04-12T14:25:34.417Z,14.80
2023-04-12T14:28:00.912Z,14.70
2023-04-12T14:30:27.395Z,14.70
2023-04-12T14:32:53.927Z,14.60
2023-04-12T14:35:20.447Z,14.60
2023-04-12T14:37:47.846Z,14.50
2023-04-12T14:40:14.578Z,14.50
2023-04-12T14:42:41.053Z,14.50
2023-04-12T14:45:07.541Z,14.60
2023-04-12T14:47:34.050Z,14.60
2023-04-12T14:50:00.570Z,14.60
2023-04-12T14:52:27.039Z,14.50
2023-04-12T14:54:53.506Z,14.50
2023-04-12T14:57:19.988Z,14.40
2023-04-12T14:59:46.511Z,14.40
2023-04-12T15:02:13.136Z,14.40
2023-04-12T15:04:39.830Z,14.40
2023-04-12T15:07:06.360Z,14.40
2023-04-12T15:09:32.830Z,14.40
2023-04-12T15:12:02.473Z,14.40
2023-04-12T15:14:28.982Z,14.50
2023-04-12T15:16:55.461Z,14.40
2023-04-12T15:19:23.108Z,14.30
2023-04-12T15:21:49.943Z,14.40
2023-04-12T15:24:16.431Z,14.40
2023-04-12T15:26:42.945Z,14.30
2023-04-12T15:29:09.430Z,14.30
2023-04-12T15:31:36.001Z,14.30
2023-04-12T15:34:02.503Z,14.30
2023-04-12T15:36:28.984Z,14.30
2023-04-12T15:38:55.459Z,14.30
2023-04-12T15:41:21.911Z,14.40
2023-04-12T15:43:48.372Z,14.30
2023-04-12T15:46:14.897Z,14.30
2023-04-12T15:48:41.387Z,14.30
2023-04-12T15:51:07.852Z,14.30
2023-04-12T15:53:34.341Z,14.30
2023-04-12T15:56:00.839Z,14.30
2023-04-12T15:58:27.396Z,14.20
2023-04-12T16:00:54.074Z,14.20
2023-04-12T16:03:21.051Z,14.20
2023-04-12T16:05:47.637Z,14.20
2023-04-12T16:08:14.101Z,14.20
2023-04-12T16:10:40.577Z,14.30
2023-04-12T16:13:07.060Z,14.20
2023-04-12T16:15:33.539Z,14.20
2023-04-12T16:18:00.069Z,14.30
2023-04-12T16:20:26.585Z,14.20
2023-04-12T16:22:53.173Z,14.20
2023-04-12T16:25:19.634Z,14.30
2023-04-12T16:27:46.085Z,14.40
2023-04-12T16:30:12.557Z,14.40
2023-04-12T16:32:39.060Z,14.30
2023-04-12T16:35:05.557Z,14.20
2023-04-12T16:37:32.036Z,14.20
2023-04-12T16:39:58.510Z,14.30
2023-04-12T16:42:24.981Z,14.30
2023-04-12T16:44:51.437Z,14.30
2023-04-12T16:47:18.006Z,14.30
2023-04-12T16:49:44.588Z,14.20
2023-04-12T16:52:11.070Z,14.20
2023-04-12T16:54:37.545Z,14.10
2023-04-12T16:57:04.076Z,14.20
2023-04-12T16:59:30.530Z,14.20
2023-04-12T17:01:57.024Z,14.30
2023-04-12T17:04:23.493Z,14.20
2023-04-12T17:06:50.038Z,14.10
2023-04-12T17:09:16.544Z,14.10
2023-04-12T17:11:43.004Z,14.10
2023-04-12T17:14:09.462Z,14.10
2023-04-12T17:16:38.648Z,14.10
2023-04-12T17:19:05.165Z,14.10
2023-04-12T17:21:31.629Z,14.10
2023-04-12T17:23:58.318Z,14.10
2023-04-12T17:26:25.199Z,14.10
2023-04-12T17:28:51.662Z,14.10
2023-04-12T17:31:18.128Z,14.20
2023-04-12T17:33:44.642Z,14.10
2023-04-12T17:36:11.422Z,14.10
2023-04-12T17:38:38.109Z,14.00
2023-04-12T17:41:04.612Z,14.10
2023-04-12T17:43:31.120Z,14.00
2023-04-12T17:45:57.657Z,14.10
2023-04-12T17:48:24.150Z,14.20
2023-04-12T17:50:50.672Z,14.20
2023-04-12T17:53:17.158Z,14.20
2023-04-12T17:55:43.674Z,14.30
2023-04-12T17:58:10.147Z,14.30
2023-04-12T18:00:36.630Z,14.30
2023-04-12T18:03:03.281Z,14.30
2023-04-12T18:05:29.893Z,14.30
2023-04-12T18:07:56.399Z,14.40
2023-04-12T18:10:22.862Z,14.30
2023-04-12T18:12:49.364Z,14.40
2023-04-12T18:15:15.841Z,14.40
2023-04-12T18:17:42.341Z,14.40
2023-04-12T18:20:08.830Z,14.40
2023-04-12T18:22:35.301Z,14.30
2023-04-12T18:25:01.787Z,14.40
2023-04-12T18:27:28.268Z,14.40
2023-04-12T18:29:54.739Z,14.50
2023-04-12T18:32:21.285Z,14.50
2023-04-12T18:34:47.787Z,14.50
2023-04-12T18:37:14.288Z,14.50
2023-04-12T18:39:40.760Z,14.50
2023-04-12T18:42:07.262Z,14.50
2023-04-12T18:44:33.750Z,14.50
2023-04-12T18:47:00.362Z,14.50
2023-04-12T18:49:26.936Z,14.50
2023-04-12T18:51:53.423Z,14.50
2023-04-12T18:54:19.909Z,14.50
2023-04-12T18:56:46.408Z,14.60
2023-04-12T18:59:12.902Z,14.50
2023-04-12T19:01:39.481Z,14.60
2023-04-12T19:04:06.062Z,14.50
2023-04-12T19:06:32.609Z,14.50
2023-04-12T19:08:59.096Z,14.50
2023-04-12T19:11:25.601Z,14.50
2023-04-12T19:13:52.074Z,14.60
2023-04-12T19:16:18.550Z,14.50
2023-04-12T19:18:50.689Z,14.50
2023-04-12T19:21:17.176Z,14.50
2023-04-12T19:23:43.668Z,14.60
2023-04-12T19:26:10.135Z,14.60
2023-04-12T19:28:36.630Z,14.60
2023-04-12T19:31:03.092Z,14.50
2023-04-12T19:33:29.588Z,14.50
2023-04-12T19:35:56.105Z,14.60
2023-04-12T19:38:22.667Z,14.60
2023-04-12T19:40:49.141Z,14.60
2023-04-12T19:43:15.631Z,14.60
2023-04-12T19:45:42.161Z,14.50
2023-04-12T19:48:08.881Z,14.50
2023-04-12T19:50:35.489Z,14.60
2023-04-12T19:53:01.963Z,14.60
2023-04-12T19:55:28.440Z,14.50
2023-04-12T19:57:54.913Z,14.50
2023-04-12T20:00:21.391Z,14.50
2023-04-12T20:02:47.887Z,14.60
2023-04-12T20:05:14.398Z,14.60
2023-04-12T20:07:40.872Z,14.50
2023-04-12T20:10:07.353Z,14.50
2023-04-12T20:12:33.810Z,14.60
2023-04-12T20:15:02.666Z,14.60
2023-04-12T20:17:29.187Z,14.60
2023-04-12T20:19:56.982Z,14.60
2023-04-12T20:22:24.251Z,14.60
2023-04-12T20:24:50.707Z,14.50
2023-04-12T20:27:17.183Z,14.50
2023-04-12T20:29:43.651Z,14.50
2023-04-12T20:32:10.158Z,14.50
2023-04-12T20:34:36.635Z,14.50
2023-04-12T20:37:03.129Z,14.50
2023-04-12T20:39:29.642Z,14.50
2023-04-12T20:41:56.124Z,14.50
2023-04-12T20:44:22.588Z,14.40
2023-04-12T20:46:49.179Z,14.40
2023-04-12T20:49:15.777Z,14.40
2023-04-12T20:51:42.246Z,14.40
2023-04-12T20:54:08.709Z,14.50
2023-04-12T20:56:35.181Z,14.50
2023-04-12T20:59:01.671Z,14.50
2023-04-12T21:01:28.219Z,14.50
2023-04-12T21:03:54.831Z,14.40
2023-04-12T21:06:21.408Z,14.40
2023-04-12T21:08:47.899Z,14.40
2023-04-12T21:11:14.381Z,14.20
2023-04-12T21:13:40.873Z,14.10
2023-04-12T21:16:07.459Z,14.10
2023-04-12T21:18:33.958Z,14.10
2023-04-12T21:21:00.433Z,14.10
2023-04-12T21:23:26.917Z,14.00
2023-04-12T21:25:53.398Z,14.10
2023-04-12T21:28:19.904Z,14.10
2023-04-12T21:30:46.393Z,14.20
2023-04-12T21:33:12.901Z,14.20
2023-04-12T21:35:39.381Z,14.20
2023-04-12T21:38:05.877Z,14.30
2023-04-12T21:40:32.780Z,14.30
2023-04-12T21:42:59.291Z,14.40
2023-04-12T21:45:25.769Z,14.40
2023-04-12T21:47:52.335Z,14.40
2023-04-12T21:50:18.831Z,14.40
2023-04-12T21:52:45.337Z,14.40
2023-04-12T21:55:11.812Z,14.40
2023-04-12T21:57:38.364Z,14.40
2023-04-12T22:00:04.858Z,14.40
2023-04-12T22:02:31.411Z,14.40
2023-04-12T22:04:57.913Z,14.40
2023-04-12T22:07:24.385Z,14.40
2023-04-12T22:09:50.857Z,14.40
2023-04-12T22:12:17.328Z,14.40
2023-04-12T22:14:45.151Z,14.50
2023-04-12T22:17:11.841Z,14.40
2023-04-12T22:19:38.845Z,14.40
2023-04-12T22:22:05.314Z,14.30
2023-04-12T22:24:31.778Z,14.30
2023-04-12T22:26:58.256Z,14.40
2023-04-12T22:29:24.739Z,14.40
2023-04-12T22:31:51.211Z,14.40
2023-04-12T22:34:17.717Z,14.40
2023-04-12T22:36:44.198Z,14.40
2023-04-12T22:39:10.680Z,14.50
2023-04-12T22:41:37.142Z,14.40
2023-04-12T22:44:03.666Z,14.50
2023-04-12T22:46:30.176Z,14.50
2023-04-12T22:48:56.709Z,14.50
2023-04-12T22:51:23.172Z,14.50
2023-04-12T22:53:49.641Z,14.50
2023-04-12T22:56:16.110Z,14.40
2023-04-12T22:58:42.583Z,14.40
2023-04-12T23:01:09.084Z,14.40
2023-04-12T23:03:35.632Z,14.40
2023-04-12T23:06:02.172Z,14.40
2023-04-12T23:08:28.698Z,14.40
2023-04-12T23:10:55.171Z,14.40
2023-04-12T23:13:21.680Z,14.50
2023-04-12T23:15:48.183Z,14.40
2023-04-12T23:18:14.707Z,14.40
2023-04-12T23:20:41.189Z,14.40
2023-04-12T23:23:07.680Z,14.40
2023-04-12T23:25:34.149Z,14.50
2023-04-12T23:28:00.667Z,14.50
2023-04-12T23:30:27.138Z,14.50
2023-04-12T23:32:53.612Z,14.40
2023-04-12T23:35:20.098Z,14.50
2023-04-12T23:37:46.563Z,14.50
2023-04-12T23:40:13.041Z,14.40
2023-04-12T23:42:39.499Z,14.40
2023-04-12T23:45:05.979Z,14.40
2023-04-12T23:47:32.446Z,14.40
2023-04-12T23:49:58.935Z,14.40
2023-04-12T23:52:25.387Z,14.40
2023-04-12T23:54:51.869Z,14.50
2023-04-12T23:57:18.342Z,14.50
2023-04-12T23:59:44.818Z,14.40
